sensor_id;sensor_type;location;lat;lon;timestamp;pressure;altitude;pressure_sealevel;temperature;humidity
77003;BME280;65939;50.060;14.288;2024-02-26T00:00:23;95951.31;;;2.56;95.78
77003;BME280;65939;50.060;14.288;2024-02-26T00:02:23;95955.25;;;2.60;95.87
77003;BME280;65939;50.060;14.288;2024-02-26T00:04:24;95955.78;;;2.64;96.20
77003;BME280;65939;50.060;14.288;2024-02-26T00:06:25;95951.28;;;2.66;95.21
77003;BME280;65939;50.060;14.288;2024-02-26T00:08:25;95950.91;;;2.61;94.37
77003;BME280;65939;50.060;14.288;2024-02-26T00:10:26;95950.47;;;2.56;94.47
77003;BME280;65939;50.060;14.288;2024-02-26T00:12:27;95949.28;;;2.50;94.28
77003;BME280;65939;50.060;14.288;2024-02-26T00:14:27;95944.03;;;2.42;94.71
77003;BME280;65939;50.060;14.288;2024-02-26T00:16:28;95940.09;;;2.38;94.65
77003;BME280;65939;50.060;14.288;2024-02-26T00:18:29;95941.31;;;2.34;95.55
77003;BME280;65939;50.060;14.288;2024-02-26T00:20:30;95942.13;;;2.34;95.07
77003;BME280;65939;50.060;14.288;2024-02-26T00:22:31;95937.28;;;2.31;95.49
77003;BME280;65939;50.060;14.288;2024-02-26T00:24:32;95945.00;;;2.31;95.30
77003;BME280;65939;50.060;14.288;2024-02-26T00:26:32;95940.38;;;2.35;95.75
77003;BME280;65939;50.060;14.288;2024-02-26T00:28:34;95940.22;;;2.36;96.20
77003;BME280;65939;50.060;14.288;2024-02-26T00:30:34;95934.94;;;2.38;95.50
77003;BME280;65939;50.060;14.288;2024-02-26T00:32:35;95930.88;;;2.35;95.52
77003;BME280;65939;50.060;14.288;2024-02-26T00:34:36;95935.63;;;2.30;94.99
77003;BME280;65939;50.060;14.288;2024-02-26T00:36:36;95927.50;;;2.25;95.73
77003;BME280;65939;50.060;14.288;2024-02-26T00:38:37;95926.16;;;2.21;95.79
77003;BME280;65939;50.060;14.288;2024-02-26T00:40:38;95933.47;;;2.16;95.84
77003;BME280;65939;50.060;14.288;2024-02-26T00:42:38;95924.13;;;2.15;95.36
77003;BME280;65939;50.060;14.288;2024-02-26T00:44:39;95921.97;;;2.10;96.11
77003;BME280;65939;50.060;14.288;2024-02-26T00:46:40;95923.19;;;2.06;95.30
77003;BME280;65939;50.060;14.288;2024-02-26T00:48:41;95915.59;;;2.05;95.41
77003;BME280;65939;50.060;14.288;2024-02-26T00:50:42;95914.53;;;2.07;94.87
77003;BME280;65939;50.060;14.288;2024-02-26T00:52:43;95920.59;;;2.06;95.09
77003;BME280;65939;50.060;14.288;2024-02-26T00:54:44;95915.88;;;2.02;94.35
77003;BME280;65939;50.060;14.288;2024-02-26T00:56:44;95913.19;;;1.94;94.27
77003;BME280;65939;50.060;14.288;2024-02-26T00:58:45;95905.34;;;1.85;94.38
77003;BME280;65939;50.060;14.288;2024-02-26T01:00:46;95899.38;;;1.75;93.75
77003;BME280;65939;50.060;14.288;2024-02-26T01:02:46;95900.19;;;1.66;93.77
77003;BME280;65939;50.060;14.288;2024-02-26T01:04:47;95896.50;;;1.59;94.44
77003;BME280;65939;50.060;14.288;2024-02-26T01:06:48;95897.03;;;1.53;94.95
77003;BME280;65939;50.060;14.288;2024-02-26T01:08:49;95903.56;;;1.47;94.00
77003;BME280;65939;50.060;14.288;2024-02-26T01:10:49;95892.72;;;1.43;94.93
77003;BME280;65939;50.060;14.288;2024-02-26T01:12:50;95891.38;;;1.39;95.14
77003;BME280;65939;50.060;14.288;2024-02-26T01:14:51;95887.44;;;1.35;94.93
77003;BME280;65939;50.060;14.288;2024-02-26T01:16:52;95886.06;;;1.31;95.19
77003;BME280;65939;50.060;14.288;2024-02-26T01:18:52;95891.50;;;1.28;95.27
77003;BME280;65939;50.060;14.288;2024-02-26T01:20:53;95888.38;;;1.25;95.16
77003;BME280;65939;50.060;14.288;2024-02-26T01:22:56;95879.97;;;1.23;95.37
77003;BME280;65939;50.060;14.288;2024-02-26T01:24:57;95880.13;;;1.21;94.45
77003;BME280;65939;50.060;14.288;2024-02-26T01:26:58;95879.28;;;1.20;94.91
77003;BME280;65939;50.060;14.288;2024-02-26T01:28:58;95877.41;;;1.23;95.05
77003;BME280;65939;50.060;14.288;2024-02-26T01:30:59;95881.59;;;1.24;95.16
77003;BME280;65939;50.060;14.288;2024-02-26T01:33:00;95879.72;;;1.26;95.19
77003;BME280;65939;50.060;14.288;2024-02-26T01:35:02;95879.56;;;1.27;94.36
77003;BME280;65939;50.060;14.288;2024-02-26T01:37:04;95880.78;;;1.23;94.26
77003;BME280;65939;50.060;14.288;2024-02-26T01:39:05;95883.63;;;1.20;93.97
77003;BME280;65939;50.060;14.288;2024-02-26T01:41:06;95879.44;;;1.19;94.18
77003;BME280;65939;50.060;14.288;2024-02-26T01:43:07;95873.47;;;1.18;93.43
77003;BME280;65939;50.060;14.288;2024-02-26T01:45:14;95874.53;;;1.16;92.98
77003;BME280;65939;50.060;14.288;2024-02-26T01:47:16;95863.16;;;1.09;93.68
77003;BME280;65939;50.060;14.288;2024-02-26T01:49:17;95865.19;;;1.05;94.03
77003;BME280;65939;50.060;14.288;2024-02-26T01:51:18;95867.22;;;1.02;93.88
77003;BME280;65939;50.060;14.288;2024-02-26T01:53:19;95863.13;;;0.99;94.08
77003;BME280;65939;50.060;14.288;2024-02-26T01:55:22;95870.19;;;0.97;93.81
77003;BME280;65939;50.060;14.288;2024-02-26T01:57:24;95869.38;;;0.97;94.20
77003;BME280;65939;50.060;14.288;2024-02-26T01:59:25;95858.94;;;0.98;94.76
77003;BME280;65939;50.060;14.288;2024-02-26T02:01:27;95859.66;;;1.00;93.93
77003;BME280;65939;50.060;14.288;2024-02-26T02:03:30;95854.09;;;1.05;94.16
77003;BME280;65939;50.060;14.288;2024-02-26T02:05:31;95853.16;;;1.06;93.56
77003;BME280;65939;50.060;14.288;2024-02-26T02:07:34;95863.97;;;1.09;93.55
77003;BME280;65939;50.060;14.288;2024-02-26T02:09:36;95858.97;;;1.08;92.81
77003;BME280;65939;50.060;14.288;2024-02-26T02:11:37;95850.72;;;1.04;93.63
77003;BME280;65939;50.060;14.288;2024-02-26T02:13:38;95853.28;;;1.04;93.77
77003;BME280;65939;50.060;14.288;2024-02-26T02:15:39;95859.25;;;1.05;92.92
77003;BME280;65939;50.060;14.288;2024-02-26T02:17:40;95855.59;;;1.07;92.47
77003;BME280;65939;50.060;14.288;2024-02-26T02:19:40;95858.03;;;1.09;91.99
77003;BME280;65939;50.060;14.288;2024-02-26T02:21:41;95858.84;;;1.09;92.04
77003;BME280;65939;50.060;14.288;2024-02-26T02:23:42;95850.47;;;1.07;92.23
77003;BME280;65939;50.060;14.288;2024-02-26T02:25:46;95851.53;;;1.05;91.68
77003;BME280;65939;50.060;14.288;2024-02-26T02:27:47;95857.63;;;1.04;91.56
77003;BME280;65939;50.060;14.288;2024-02-26T02:29:48;95857.06;;;1.00;91.08
77003;BME280;65939;50.060;14.288;2024-02-26T02:31:50;95853.13;;;0.96;91.01
77003;BME280;65939;50.060;14.288;2024-02-26T02:33:51;95851.66;;;0.93;91.01
77003;BME280;65939;50.060;14.288;2024-02-26T02:35:52;95851.66;;;0.93;91.57
77003;BME280;65939;50.060;14.288;2024-02-26T02:37:56;95848.13;;;0.94;91.11
77003;BME280;65939;50.060;14.288;2024-02-26T02:39:57;95841.38;;;0.93;91.20
77003;BME280;65939;50.060;14.288;2024-02-26T02:41:58;95848.38;;;0.91;90.46
77003;BME280;65939;50.060;14.288;2024-02-26T02:43:58;95837.16;;;0.92;90.41
77003;BME280;65939;50.060;14.288;2024-02-26T02:45:59;95844.88;;;0.92;90.96
77003;BME280;65939;50.060;14.288;2024-02-26T02:48:00;95845.81;;;0.91;90.37
77003;BME280;65939;50.060;14.288;2024-02-26T02:50:01;95839.88;;;0.91;90.38
77003;BME280;65939;50.060;14.288;2024-02-26T02:52:02;95838.09;;;0.91;90.57
77003;BME280;65939;50.060;14.288;2024-02-26T02:54:03;95843.50;;;0.88;90.52
77003;BME280;65939;50.060;14.288;2024-02-26T02:56:04;95851.47;;;0.85;89.67
77003;BME280;65939;50.060;14.288;2024-02-26T02:58:05;95845.66;;;0.83;90.33
77003;BME280;65939;50.060;14.288;2024-02-26T03:00:08;95845.22;;;0.78;90.54
77003;BME280;65939;50.060;14.288;2024-02-26T03:02:09;95845.63;;;0.74;91.01
77003;BME280;65939;50.060;14.288;2024-02-26T03:04:10;95849.16;;;0.73;90.84
77003;BME280;65939;50.060;14.288;2024-02-26T03:06:11;95847.41;;;0.73;91.54
77003;BME280;65939;50.060;14.288;2024-02-26T03:08:11;95851.84;;;0.71;91.24
77003;BME280;65939;50.060;14.288;2024-02-26T03:10:12;95850.09;;;0.71;91.39
77003;BME280;65939;50.060;14.288;2024-02-26T03:12:14;95849.28;;;0.71;90.60
77003;BME280;65939;50.060;14.288;2024-02-26T03:14:14;95846.69;;;0.71;91.35
77003;BME280;65939;50.060;14.288;2024-02-26T03:16:17;95849.41;;;0.69;91.23
77003;BME280;65939;50.060;14.288;2024-02-26T03:18:18;95854.81;;;0.66;90.81
77003;BME280;65939;50.060;14.288;2024-02-26T03:20:18;95850.06;;;0.62;91.02
77003;BME280;65939;50.060;14.288;2024-02-26T03:22:20;95856.53;;;0.56;90.99
77003;BME280;65939;50.060;14.288;2024-02-26T03:24:21;95855.97;;;0.53;90.96
77003;BME280;65939;50.060;14.288;2024-02-26T03:26:21;95857.88;;;0.51;91.45
77003;BME280;65939;50.060;14.288;2024-02-26T03:28:22;95862.31;;;0.48;91.64
77003;BME280;65939;50.060;14.288;2024-02-26T03:30:23;95852.03;;;0.48;91.73
77003;BME280;65939;50.060;14.288;2024-02-26T03:32:23;95864.88;;;0.48;91.68
77003;BME280;65939;50.060;14.288;2024-02-26T03:34:24;95863.38;;;0.46;92.38
77003;BME280;65939;50.060;14.288;2024-02-26T03:36:26;95855.09;;;0.42;92.57
77003;BME280;65939;50.060;14.288;2024-02-26T03:38:28;95865.53;;;0.41;92.11
77003;BME280;65939;50.060;14.288;2024-02-26T03:40:29;95862.41;;;0.37;92.96
77003;BME280;65939;50.060;14.288;2024-02-26T03:42:29;95866.84;;;0.35;92.79
77003;BME280;65939;50.060;14.288;2024-02-26T03:44:30;95867.66;;;0.36;93.47
77003;BME280;65939;50.060;14.288;2024-02-26T03:46:30;95866.72;;;0.37;93.57
77003;BME280;65939;50.060;14.288;2024-02-26T03:48:31;95868.34;;;0.38;93.00
77003;BME280;65939;50.060;14.288;2024-02-26T03:50:32;95859.97;;;0.36;93.46
77003;BME280;65939;50.060;14.288;2024-02-26T03:52:33;95853.19;;;0.35;94.27
77003;BME280;65939;50.060;14.288;2024-02-26T03:54:34;95855.91;;;0.33;94.27
77003;BME280;65939;50.060;14.288;2024-02-26T03:56:35;95856.16;;;0.30;94.51
77003;BME280;65939;50.060;14.288;2024-02-26T03:58:35;95858.72;;;0.30;94.80
77003;BME280;65939;50.060;14.288;2024-02-26T04:00:36;95860.47;;;0.30;95.03
77003;BME280;65939;50.060;14.288;2024-02-26T04:02:37;95861.41;;;0.29;95.45
77003;BME280;65939;50.060;14.288;2024-02-26T04:04:38;95858.97;;;0.27;95.13
77003;BME280;65939;50.060;14.288;2024-02-26T04:06:38;95858.28;;;0.25;96.05
77003;BME280;65939;50.060;14.288;2024-02-26T04:08:39;95860.72;;;0.27;96.41
77003;BME280;65939;50.060;14.288;2024-02-26T04:10:40;95863.16;;;0.28;96.01
77003;BME280;65939;50.060;14.288;2024-02-26T04:12:42;95862.47;;;0.26;95.60
77003;BME280;65939;50.060;14.288;2024-02-26T04:14:42;95860.72;;;0.27;96.24
77003;BME280;65939;50.060;14.288;2024-02-26T04:16:43;95866.81;;;0.26;95.76
77003;BME280;65939;50.060;14.288;2024-02-26T04:18:44;95861.66;;;0.26;95.93
77003;BME280;65939;50.060;14.288;2024-02-26T04:20:44;95861.78;;;0.24;95.61
77003;BME280;65939;50.060;14.288;2024-02-26T04:22:45;95859.59;;;0.19;95.60
77003;BME280;65939;50.060;14.288;2024-02-26T04:24:46;95859.03;;;0.16;96.21
77003;BME280;65939;50.060;14.288;2024-02-26T04:26:46;95860.00;;;0.15;96.33
77003;BME280;65939;50.060;14.288;2024-02-26T04:28:47;95860.09;;;0.13;96.22
77003;BME280;65939;50.060;14.288;2024-02-26T04:30:48;95853.22;;;0.14;96.45
77003;BME280;65939;50.060;14.288;2024-02-26T04:32:48;95856.63;;;0.14;96.72
77003;BME280;65939;50.060;14.288;2024-02-26T04:34:49;95860.66;;;0.17;96.33
77003;BME280;65939;50.060;14.288;2024-02-26T04:36:50;95858.00;;;0.18;96.78
77003;BME280;65939;50.060;14.288;2024-02-26T04:38:51;95862.97;;;0.20;96.73
77003;BME280;65939;50.060;14.288;2024-02-26T04:40:55;95856.91;;;0.21;96.70
77003;BME280;65939;50.060;14.288;2024-02-26T04:42:55;95857.84;;;0.20;96.39
77003;BME280;65939;50.060;14.288;2024-02-26T04:44:56;95862.03;;;0.21;96.82
77003;BME280;65939;50.060;14.288;2024-02-26T04:46:57;95860.31;;;0.21;96.87
77003;BME280;65939;50.060;14.288;2024-02-26T04:48:57;95863.69;;;0.22;96.39
77003;BME280;65939;50.060;14.288;2024-02-26T04:50:58;95857.59;;;0.23;96.65
77003;BME280;65939;50.060;14.288;2024-02-26T04:52:59;95861.47;;;0.17;96.35
77003;BME280;65939;50.060;14.288;2024-02-26T04:55:00;95866.75;;;0.16;96.54
77003;BME280;65939;50.060;14.288;2024-02-26T04:57:00;95864.44;;;0.13;96.68
77003;BME280;65939;50.060;14.288;2024-02-26T04:59:01;95876.44;;;0.12;96.39
77003;BME280;65939;50.060;14.288;2024-02-26T05:01:03;95878.06;;;0.13;96.86
77003;BME280;65939;50.060;14.288;2024-02-26T05:03:05;95878.22;;;0.12;97.02
77003;BME280;65939;50.060;14.288;2024-02-26T05:05:06;95874.13;;;0.09;96.09
77003;BME280;65939;50.060;14.288;2024-02-26T05:07:07;95880.31;;;0.07;96.80
77003;BME280;65939;50.060;14.288;2024-02-26T05:09:07;95877.75;;;0.07;96.72
77003;BME280;65939;50.060;14.288;2024-02-26T05:11:08;95878.44;;;0.09;97.13
77003;BME280;65939;50.060;14.288;2024-02-26T05:13:09;95874.94;;;0.10;96.96
77003;BME280;65939;50.060;14.288;2024-02-26T05:15:10;95869.00;;;0.09;97.31
77003;BME280;65939;50.060;14.288;2024-02-26T05:17:11;95876.84;;;0.08;97.18
77003;BME280;65939;50.060;14.288;2024-02-26T05:19:11;95877.09;;;0.05;97.14
77003;BME280;65939;50.060;14.288;2024-02-26T05:21:12;95877.09;;;0.05;97.32
77003;BME280;65939;50.060;14.288;2024-02-26T05:23:13;95878.69;;;0.06;97.84
77003;BME280;65939;50.060;14.288;2024-02-26T05:25:17;95883.03;;;0.05;97.61
77003;BME280;65939;50.060;14.288;2024-02-26T05:27:17;95882.47;;;0.02;97.26
77003;BME280;65939;50.060;14.288;2024-02-26T05:29:18;95880.84;;;0.01;97.15
77003;BME280;65939;50.060;14.288;2024-02-26T05:31:19;95886.88;;;-0.01;97.56
77003;BME280;65939;50.060;14.288;2024-02-26T05:33:19;95879.72;;;-0.07;97.37
77003;BME280;65939;50.060;14.288;2024-02-26T05:35:20;95880.63;;;-0.08;98.28
77003;BME280;65939;50.060;14.288;2024-02-26T05:37:21;95879.72;;;-0.07;97.74
77003;BME280;65939;50.060;14.288;2024-02-26T05:39:21;95879.97;;;-0.10;98.66
77003;BME280;65939;50.060;14.288;2024-02-26T05:41:22;95882.28;;;-0.07;98.70
77003;BME280;65939;50.060;14.288;2024-02-26T05:43:27;95881.44;;;-0.07;99.13
77003;BME280;65939;50.060;14.288;2024-02-26T05:45:28;95883.19;;;-0.08;99.07
77003;BME280;65939;50.060;14.288;2024-02-26T05:47:29;95890.53;;;-0.03;99.04
77003;BME280;65939;50.060;14.288;2024-02-26T05:49:30;95889.44;;;-0.01;98.67
77003;BME280;65939;50.060;14.288;2024-02-26T05:51:31;95893.78;;;-0.01;99.14
77003;BME280;65939;50.060;14.288;2024-02-26T05:53:31;95897.28;;;-0.02;98.84
77003;BME280;65939;50.060;14.288;2024-02-26T05:55:32;95901.59;;;-0.03;99.84
77003;BME280;65939;50.060;14.288;2024-02-26T05:57:34;95906.75;;;-0.03;99.48
77003;BME280;65939;50.060;14.288;2024-02-26T05:59:35;95902.97;;;0.02;100.00
77003;BME280;65939;50.060;14.288;2024-02-26T06:01:35;95907.88;;;0.05;100.00
77003;BME280;65939;50.060;14.288;2024-02-26T06:03:36;95905.06;;;0.08;100.00
77003;BME280;65939;50.060;14.288;2024-02-26T06:05:37;95911.25;;;0.05;99.90
77003;BME280;65939;50.060;14.288;2024-02-26T06:07:37;95911.25;;;0.05;100.00
77003;BME280;65939;50.060;14.288;2024-02-26T06:09:38;95905.72;;;0.10;100.00
77003;BME280;65939;50.060;14.288;2024-02-26T06:11:40;95906.44;;;0.12;100.00
77003;BME280;65939;50.060;14.288;2024-02-26T06:13:40;95905.47;;;0.13;100.00
77003;BME280;65939;50.060;14.288;2024-02-26T06:15:41;95916.56;;;0.13;100.00
77003;BME280;65939;50.060;14.288;2024-02-26T06:17:41;95914.78;;;0.14;100.00
77003;BME280;65939;50.060;14.288;2024-02-26T06:19:42;95924.97;;;0.15;100.00
77003;BME280;65939;50.060;14.288;2024-02-26T06:21:43;95920.63;;;0.16;100.00
77003;BME280;65939;50.060;14.288;2024-02-26T06:23:43;95921.34;;;0.18;100.00
77003;BME280;65939;50.060;14.288;2024-02-26T06:25:44;95936.91;;;0.26;100.00
77003;BME280;65939;50.060;14.288;2024-02-26T06:27:45;95936.97;;;0.36;100.00
77003;BME280;65939;50.060;14.288;2024-02-26T06:29:45;95922.69;;;0.43;100.00
77003;BME280;65939;50.060;14.288;2024-02-26T06:31:46;95937.81;;;0.46;100.00
77003;BME280;65939;50.060;14.288;2024-02-26T06:33:49;95940.03;;;0.51;100.00
77003;BME280;65939;50.060;14.288;2024-02-26T06:35:49;95943.81;;;0.56;100.00
77003;BME280;65939;50.060;14.288;2024-02-26T06:37:50;95953.28;;;0.56;100.00
77003;BME280;65939;50.060;14.288;2024-02-26T06:39:53;95946.28;;;0.58;100.00
77003;BME280;65939;50.060;14.288;2024-02-26T06:41:53;95952.53;;;0.65;100.00
77003;BME280;65939;50.060;14.288;2024-02-26T06:44:00;95943.88;;;0.66;100.00
77003;BME280;65939;50.060;14.288;2024-02-26T06:46:02;95942.56;;;0.71;100.00
77003;BME280;65939;50.060;14.288;2024-02-26T06:48:03;95949.06;;;0.76;100.00
77003;BME280;65939;50.060;14.288;2024-02-26T06:50:04;95939.22;;;0.81;100.00
77003;BME280;65939;50.060;14.288;2024-02-26T06:52:05;95943.69;;;0.88;100.00
77003;BME280;65939;50.060;14.288;2024-02-26T06:54:06;95952.34;;;0.87;100.00
77003;BME280;65939;50.060;14.288;2024-02-26T06:56:07;95945.34;;;0.89;100.00
77003;BME280;65939;50.060;14.288;2024-02-26T06:58:08;95950.50;;;0.89;100.00
77003;BME280;65939;50.060;14.288;2024-02-26T07:00:09;95954.28;;;0.95;100.00
77003;BME280;65939;50.060;14.288;2024-02-26T07:02:14;95952.16;;;1.00;100.00
77003;BME280;65939;50.060;14.288;2024-02-26T07:04:17;95955.13;;;1.05;100.00
77003;BME280;65939;50.060;14.288;2024-02-26T07:06:17;95953.00;;;1.10;100.00
77003;BME280;65939;50.060;14.288;2024-02-26T07:08:19;95957.59;;;1.16;100.00
77003;BME280;65939;50.060;14.288;2024-02-26T07:10:20;95963.56;;;1.17;100.00
77003;BME280;65939;50.060;14.288;2024-02-26T07:12:21;95957.22;;;1.21;100.00
77003;BME280;65939;50.060;14.288;2024-02-26T07:14:22;95954.25;;;1.26;100.00
77003;BME280;65939;50.060;14.288;2024-02-26T07:16:23;95954.13;;;1.27;100.00
77003;BME280;65939;50.060;14.288;2024-02-26T07:18:24;95960.75;;;1.30;100.00
77003;BME280;65939;50.060;14.288;2024-02-26T07:20:24;95958.75;;;1.33;100.00
77003;BME280;65939;50.060;14.288;2024-02-26T07:22:25;95953.63;;;1.43;100.00
77003;BME280;65939;50.060;14.288;2024-02-26T07:24:26;95960.94;;;1.48;100.00
77003;BME280;65939;50.060;14.288;2024-02-26T07:26:26;95953.63;;;1.53;100.00
77003;BME280;65939;50.060;14.288;2024-02-26T07:28:27;95957.28;;;1.60;100.00
77003;BME280;65939;50.060;14.288;2024-02-26T07:30:28;95951.63;;;1.66;100.00
77003;BME280;65939;50.060;14.288;2024-02-26T07:32:28;95959.63;;;1.73;100.00
77003;BME280;65939;50.060;14.288;2024-02-26T07:34:29;95960.31;;;1.84;100.00
77003;BME280;65939;50.060;14.288;2024-02-26T07:36:30;95960.84;;;1.98;100.00
77003;BME280;65939;50.060;14.288;2024-02-26T07:38:31;95963.28;;;2.09;100.00
77003;BME280;65939;50.060;14.288;2024-02-26T07:40:31;95976.44;;;2.15;99.40
77003;BME280;65939;50.060;14.288;2024-02-26T07:42:32;95969.53;;;2.26;99.33
77003;BME280;65939;50.060;14.288;2024-02-26T07:44:33;95979.81;;;2.35;99.37
77003;BME280;65939;50.060;14.288;2024-02-26T07:46:34;95977.38;;;2.44;99.57
77003;BME280;65939;50.060;14.288;2024-02-26T07:48:34;95971.66;;;2.50;99.12
77003;BME280;65939;50.060;14.288;2024-02-26T07:50:35;95969.19;;;2.58;98.75
77003;BME280;65939;50.060;14.288;2024-02-26T07:52:36;95970.81;;;2.69;98.91
77003;BME280;65939;50.060;14.288;2024-02-26T07:54:37;95970.78;;;2.78;98.56
77003;BME280;65939;50.060;14.288;2024-02-26T07:56:37;95976.72;;;2.88;97.93
77003;BME280;65939;50.060;14.288;2024-02-26T07:58:38;95982.94;;;2.96;97.30
77003;BME280;65939;50.060;14.288;2024-02-26T08:00:39;95975.97;;;3.06;96.90
77003;BME280;65939;50.060;14.288;2024-02-26T08:02:39;95975.94;;;3.16;96.24
77003;BME280;65939;50.060;14.288;2024-02-26T08:04:40;95980.78;;;3.28;96.62
77003;BME280;65939;50.060;14.288;2024-02-26T08:06:41;95989.41;;;3.37;96.63
77003;BME280;65939;50.060;14.288;2024-02-26T08:08:43;95992.13;;;3.45;96.35
77003;BME280;65939;50.060;14.288;2024-02-26T08:10:44;95995.31;;;3.57;96.44
77003;BME280;65939;50.060;14.288;2024-02-26T08:12:45;95987.81;;;3.64;96.22
77003;BME280;65939;50.060;14.288;2024-02-26T08:14:46;95996.44;;;3.72;96.13
77003;BME280;65939;50.060;14.288;2024-02-26T08:16:46;95998.97;;;3.82;95.99
77003;BME280;65939;50.060;14.288;2024-02-26T08:18:47;95985.31;;;3.90;95.89
77003;BME280;65939;50.060;14.288;2024-02-26T08:20:48;95993.81;;;4.00;96.13
77003;BME280;65939;50.060;14.288;2024-02-26T08:22:49;95991.81;;;4.12;95.85
77003;BME280;65939;50.060;14.288;2024-02-26T08:24:50;95980.44;;;4.22;95.98
77003;BME280;65939;50.060;14.288;2024-02-26T08:26:50;95987.31;;;4.31;95.90
77003;BME280;65939;50.060;14.288;2024-02-26T08:28:51;95986.72;;;4.38;95.70
77003;BME280;65939;50.060;14.288;2024-02-26T08:30:51;95980.31;;;4.42;95.72
77003;BME280;65939;50.060;14.288;2024-02-26T08:32:52;95979.69;;;4.48;95.37
77003;BME280;65939;50.060;14.288;2024-02-26T08:34:53;95983.44;;;4.53;94.69
77003;BME280;65939;50.060;14.288;2024-02-26T08:36:54;95987.34;;;4.57;94.79
77003;BME280;65939;50.060;14.288;2024-02-26T08:38:55;95996.28;;;4.63;94.41
77003;BME280;65939;50.060;14.288;2024-02-26T08:40:56;95996.63;;;4.68;93.63
77003;BME280;65939;50.060;14.288;2024-02-26T08:42:56;96003.78;;;4.74;93.26
77003;BME280;65939;50.060;14.288;2024-02-26T08:44:58;95994.47;;;4.82;93.51
77003;BME280;65939;50.060;14.288;2024-02-26T08:47:02;95984.47;;;4.87;93.83
77003;BME280;65939;50.060;14.288;2024-02-26T08:49:04;95984.97;;;4.90;93.37
77003;BME280;65939;50.060;14.288;2024-02-26T08:51:07;95980.69;;;4.99;93.88
77003;BME280;65939;50.060;14.288;2024-02-26T08:53:08;95989.44;;;5.06;93.94
77003;BME280;65939;50.060;14.288;2024-02-26T08:55:09;95984.00;;;5.17;93.62
77003;BME280;65939;50.060;14.288;2024-02-26T08:57:09;95991.00;;;5.25;93.53
77003;BME280;65939;50.060;14.288;2024-02-26T08:59:10;95988.91;;;5.28;92.98
77003;BME280;65939;50.060;14.288;2024-02-26T09:01:11;95982.31;;;5.34;92.21
77003;BME280;65939;50.060;14.288;2024-02-26T09:03:11;95982.00;;;5.37;92.57
77003;BME280;65939;50.060;14.288;2024-02-26T09:05:12;95992.53;;;5.44;91.74
77003;BME280;65939;50.060;14.288;2024-02-26T09:07:13;95990.59;;;5.46;91.74
77003;BME280;65939;50.060;14.288;2024-02-26T09:09:14;95996.44;;;5.48;92.06
77003;BME280;65939;50.060;14.288;2024-02-26T09:11:14;95996.28;;;5.49;92.22
77003;BME280;65939;50.060;14.288;2024-02-26T09:13:15;96003.56;;;5.54;91.59
77003;BME280;65939;50.060;14.288;2024-02-26T09:15:16;95997.06;;;5.50;91.58
77003;BME280;65939;50.060;14.288;2024-02-26T09:17:16;95995.16;;;5.52;91.02
77003;BME280;65939;50.060;14.288;2024-02-26T09:19:17;95998.38;;;5.54;91.24
77003;BME280;65939;50.060;14.288;2024-02-26T09:21:18;96002.44;;;5.57;91.07
77003;BME280;65939;50.060;14.288;2024-02-26T09:23:23;95996.97;;;5.60;89.96
77003;BME280;65939;50.060;14.288;2024-02-26T09:25:24;96007.16;;;5.61;90.28
77003;BME280;65939;50.060;14.288;2024-02-26T09:27:24;96001.03;;;5.62;90.47
77003;BME280;65939;50.060;14.288;2024-02-26T09:29:25;96005.22;;;5.63;90.64
77003;BME280;65939;50.060;14.288;2024-02-26T09:31:26;96003.13;;;5.67;91.21
77003;BME280;65939;50.060;14.288;2024-02-26T09:33:27;95999.94;;;5.73;90.76
77003;BME280;65939;50.060;14.288;2024-02-26T09:35:28;96010.63;;;5.78;89.85
77003;BME280;65939;50.060;14.288;2024-02-26T09:37:29;96015.47;;;5.81;90.48
77003;BME280;65939;50.060;14.288;2024-02-26T09:39:30;96015.63;;;5.80;88.85
77003;BME280;65939;50.060;14.288;2024-02-26T09:41:31;96018.22;;;5.80;88.81
77003;BME280;65939;50.060;14.288;2024-02-26T09:43:35;96016.28;;;5.82;89.10
77003;BME280;65939;50.060;14.288;2024-02-26T09:45:37;96017.09;;;5.82;89.52
77003;BME280;65939;50.060;14.288;2024-02-26T09:47:38;96017.75;;;5.84;89.42
77003;BME280;65939;50.060;14.288;2024-02-26T09:49:39;96018.41;;;5.86;88.95
77003;BME280;65939;50.060;14.288;2024-02-26T09:51:40;96015.34;;;5.91;89.46
77003;BME280;65939;50.060;14.288;2024-02-26T09:53:43;96014.91;;;5.95;89.19
77003;BME280;65939;50.060;14.288;2024-02-26T09:55:45;96007.94;;;5.96;89.69
77003;BME280;65939;50.060;14.288;2024-02-26T09:57:46;96011.19;;;5.98;89.91
77003;BME280;65939;50.060;14.288;2024-02-26T09:59:51;96023.00;;;6.00;90.71
77003;BME280;65939;50.060;14.288;2024-02-26T10:01:55;96023.16;;;5.99;90.11
77003;BME280;65939;50.060;14.288;2024-02-26T10:03:57;96019.78;;;5.98;89.68
77003;BME280;65939;50.060;14.288;2024-02-26T10:05:58;96024.63;;;6.02;90.58
77003;BME280;65939;50.060;14.288;2024-02-26T10:08:01;96023.34;;;6.06;90.18
77003;BME280;65939;50.060;14.288;2024-02-26T10:10:03;96025.63;;;6.09;90.71
77003;BME280;65939;50.060;14.288;2024-02-26T10:12:04;96025.16;;;6.13;89.92
77003;BME280;65939;50.060;14.288;2024-02-26T10:14:05;96036.81;;;6.17;90.35
77003;BME280;65939;50.060;14.288;2024-02-26T10:16:06;96036.50;;;6.20;89.88
77003;BME280;65939;50.060;14.288;2024-02-26T10:18:08;96040.56;;;6.23;89.95
77003;BME280;65939;50.060;14.288;2024-02-26T10:20:16;96035.03;;;6.26;90.13
77003;BME280;65939;50.060;14.288;2024-02-26T10:22:23;96031.31;;;6.29;90.00
77003;BME280;65939;50.060;14.288;2024-02-26T10:24:28;96027.59;;;6.31;89.69
77003;BME280;65939;50.060;14.288;2024-02-26T10:26:29;96038.47;;;6.35;90.35
77003;BME280;65939;50.060;14.288;2024-02-26T10:28:30;96039.75;;;6.39;90.38
77003;BME280;65939;50.060;14.288;2024-02-26T10:30:30;96041.38;;;6.40;89.39
77003;BME280;65939;50.060;14.288;2024-02-26T10:32:32;96041.06;;;6.43;89.67
77003;BME280;65939;50.060;14.288;2024-02-26T10:34:35;96046.59;;;6.48;90.37
77003;BME280;65939;50.060;14.288;2024-02-26T10:36:38;96043.31;;;6.54;88.96
77003;BME280;65939;50.060;14.288;2024-02-26T10:38:41;96048.53;;;6.62;90.03